Amboy, California
Current Conditions -  °F | °C
As of 5:56 PM on Saturday 25 Oct 2014 (Local Time) from KNXP Reporting Station
Few Clouds Few Clouds  
Wind Chill: 81°   Ceiling: Unl
Heat Index: 81°   Visibility: 10mi
Dew Point: 43°   Wind: 13mph
Humidity: 26%   Direction: 220°SW
Pressure: 30.02"   Gusts: NA
Location:  34.56°N, 115.75°W
Report Text: KNXP 260056Z 22011KT 10SM FEW120 27/06 A3002 RMK AO2 SLP133 T02720061
Loading
Personal Weather Stations






























Interactive Weather Map
Tropical Storm Tracking
New forecast layout! Learn more

10-Day Weather Forecast

Advertisements
Track Severe Weather on mobile